Time;durP1;ratioP1;P1;durP2;ratioP2;P2;SDS_P1;SDS_P2;PMS_P1;PMS_P2;Temp;Humidity;BMP_temperature;BMP_pressure;BME280_temperature;BME280_humidity;BME280_pressure;Samples;Min_cycle;Max_cycle;Signal;HPM_P1;HPM_P2
2021/05/09 00:00:29;;;;;;;8.55;4.35;;;;;;;9.16;99.18;100114.28;5246007;28;20089;-81
2021/05/09 00:02:59;;;;;;;6.78;3.80;;;;;;;9.16;98.62;100111.66;5242156;28;20039;-80
2021/05/09 00:05:30;;;;;;;7.82;4.25;;;;;;;9.10;99.33;100115.44;5240896;28;20095;-79
2021/05/09 00:08:00;;;;;;;7.57;4.00;;;;;;;8.96;99.68;100113.34;5243338;28;20035;-79
2021/05/09 00:10:31;;;;;;;7.75;4.35;;;;;;;8.95;99.79;100110.78;5252086;28;20716;-79
2021/05/09 00:13:01;;;;;;;6.15;3.85;;;;;;;9.07;99.22;100100.75;5246244;28;20121;-80
2021/05/09 00:15:31;;;;;;;6.20;4.00;;;;;;;8.88;99.67;100111.91;5246129;28;20027;-80
2021/05/09 00:18:03;;;;;;;8.45;4.00;;;;;;;8.93;100.00;100110.81;5246051;28;20161;-79
2021/05/09 00:20:33;;;;;;;6.97;4.03;;;;;;;8.83;100.00;100104.25;5245801;28;20112;-80
2021/05/09 00:23:04;;;;;;;7.63;4.00;;;;;;;8.83;99.94;100101.66;5245972;28;20108;-79
2021/05/09 00:25:34;;;;;;;6.43;3.90;;;;;;;8.87;99.43;100100.63;5246089;28;20386;-80
2021/05/09 00:28:05;;;;;;;7.25;3.78;;;;;;;8.86;99.45;100105.91;5245754;28;20135;-79
2021/05/09 00:30:35;;;;;;;5.78;3.70;;;;;;;8.73;100.00;100104.63;5246110;28;20089;-79
2021/05/09 00:33:05;;;;;;;7.70;4.25;;;;;;;8.71;100.00;100103.84;5245775;28;20403;-79
2021/05/09 00:35:36;;;;;;;6.82;3.92;;;;;;;8.79;99.45;100097.47;5246148;28;20460;-79
2021/05/09 00:38:06;;;;;;;7.15;3.80;;;;;;;8.74;99.90;100096.75;5245811;28;20036;-80
2021/05/09 00:40:37;;;;;;;6.70;4.05;;;;;;;8.66;100.00;100096.19;5227794;28;20028;-80
2021/05/09 00:43:07;;;;;;;7.28;4.00;;;;;;;8.53;100.00;100091.47;5245820;28;20029;-79
2021/05/09 00:45:38;;;;;;;5.32;3.45;;;;;;;8.55;100.00;100092.28;5245899;28;20039;-79
2021/05/09 00:48:10;;;;;;;6.22;4.18;;;;;;;8.56;100.00;100091.38;5245747;28;20090;-79
2021/05/09 00:50:40;;;;;;;5.15;3.78;;;;;;;8.59;100.00;100091.25;5245502;28;20032;-79
2021/05/09 00:53:13;;;;;;;10.43;4.30;;;;;;;8.47;100.00;100087.31;5245562;28;20039;-80
2021/05/09 00:55:43;;;;;;;5.40;3.42;;;;;;;8.53;100.00;100092.31;5244792;28;20020;-80
2021/05/09 00:58:15;;;;;;;4.90;3.55;;;;;;;8.43;100.00;100088.34;5245571;28;20025;-80
2021/05/09 01:00:46;;;;;;;7.22;3.80;;;;;;;8.71;100.00;100080.41;5244827;28;20028;-80
2021/05/09 01:03:20;;;;;;;5.20;3.70;;;;;;;8.62;100.00;100081.59;5244955;28;20031;-81
2021/05/09 01:05:50;;;;;;;6.60;3.88;;;;;;;8.62;100.00;100084.19;5244657;28;20032;-79
2021/05/09 01:08:21;;;;;;;5.53;3.35;;;;;;;8.89;98.81;100077.13;5245548;28;20592;-79
2021/05/09 01:10:51;;;;;;;5.45;3.35;;;;;;;8.75;99.11;100087.19;5245058;28;20063;-80
2021/05/09 01:13:22;;;;;;;6.43;3.22;;;;;;;8.84;98.31;100079.91;5245461;28;20025;-80
2021/05/09 01:15:52;;;;;;;4.88;3.20;;;;;;;9.02;96.80;100076.63;5244830;28;20081;-81
2021/05/09 01:18:23;;;;;;;5.80;3.38;;;;;;;8.96;96.96;100069.03;5244676;28;20024;-80
2021/05/09 01:20:53;;;;;;;5.38;3.15;;;;;;;9.06;96.64;100072.16;5244492;28;20024;-80
2021/05/09 01:23:23;;;;;;;4.70;2.97;;;;;;;8.99;97.23;100070.66;5245346;28;20025;-79
2021/05/09 01:25:54;;;;;;;5.80;2.95;;;;;;;9.06;95.92;100067.75;5244920;28;20060;-81
2021/05/09 01:28:24;;;;;;;6.43;3.65;;;;;;;9.17;95.16;100081.25;5245419;28;20029;-79
2021/05/09 01:30:54;;;;;;;5.90;3.03;;;;;;;9.15;95.65;100076.09;5244000;28;20032;-79
2021/05/09 01:33:24;;;;;;;4.43;2.83;;;;;;;9.27;94.55;100077.38;5245217;28;20536;-79
2021/05/09 01:35:55;;;;;;;7.07;2.88;;;;;;;9.22;93.96;100066.28;5244522;28;20051;-80
2021/05/09 01:38:25;;;;;;;5.35;2.60;;;;;;;9.17;94.57;100068.22;5245049;28;20035;-80
2021/05/09 01:40:56;;;;;;;5.90;2.90;;;;;;;9.29;93.66;100059.94;5244439;28;20040;-80
2021/05/09 01:43:26;;;;;;;3.85;2.63;;;;;;;9.40;93.09;100055.13;5244907;28;20363;-79
2021/05/09 01:45:56;;;;;;;8.93;2.90;;;;;;;9.31;93.60;100051.13;5245284;28;20038;-79
2021/05/09 01:48:27;;;;;;;3.35;2.50;;;;;;;9.23;93.68;100054.94;5251491;22;20424;-77
2021/05/09 01:50:57;;;;;;;4.20;2.42;;;;;;;9.19;94.40;100058.56;5229249;28;20037;-77
2021/05/09 01:53:27;;;;;;;4.22;2.60;;;;;;;9.17;94.65;100049.97;5235455;28;20029;-77
2021/05/09 01:55:58;;;;;;;4.82;2.30;;;;;;;9.20;94.58;100052.44;5213834;28;20032;-77
2021/05/09 01:58:28;;;;;;;5.45;2.47;;;;;;;9.16;94.83;100056.94;5232456;28;20032;-77
2021/05/09 02:00:58;;;;;;;4.65;2.45;;;;;;;8.97;95.61;100046.41;5223779;28;20040;-77
2021/05/09 02:03:28;;;;;;;3.20;2.28;;;;;;;8.80;96.87;100054.88;5237034;28;20111;-77
2021/05/09 02:05:59;;;;;;;4.15;2.30;;;;;;;8.64;97.64;100058.06;5220621;28;20024;-77
2021/05/09 02:08:29;;;;;;;3.53;2.20;;;;;;;8.46;99.08;100063.94;5235881;28;20033;-77
2021/05/09 02:11:00;;;;;;;3.08;2.30;;;;;;;8.46;99.01;100059.59;5219730;28;20056;-77
2021/05/09 02:13:30;;;;;;;4.63;2.25;;;;;;;8.49;99.05;100054.28;5235072;28;20024;-77
2021/05/09 02:16:00;;;;;;;4.28;2.50;;;;;;;8.30;100.00;100054.94;5234041;28;20382;-77
2021/05/09 02:18:31;;;;;;;4.43;2.50;;;;;;;8.28;99.94;100048.97;5236271;28;20668;-77
2021/05/09 02:21:01;;;;;;;4.45;2.47;;;;;;;8.36;99.73;100041.75;5236782;28;20025;-77
2021/05/09 02:23:32;;;;;;;5.55;2.72;;;;;;;8.38;99.77;100039.94;5217504;28;20031;-77
2021/05/09 02:26:02;;;;;;;4.65;2.90;;;;;;;8.37;100.00;100041.66;5220647;28;20064;-77
2021/05/09 02:28:33;;;;;;;5.18;2.83;;;;;;;8.36;100.00;100045.19;5213229;28;20024;-78
2021/05/09 02:31:03;;;;;;;3.95;2.78;;;;;;;8.50;99.53;100040.34;5210422;28;20064;-78
2021/05/09 02:33:33;;;;;;;5.38;2.60;;;;;;;8.57;98.29;100038.38;5240118;28;20025;-77
2021/05/09 02:36:05;;;;;;;5.47;2.53;;;;;;;8.56;97.90;100039.28;5237645;28;20051;-77
2021/05/09 02:38:35;;;;;;;4.68;2.65;;;;;;;8.56;98.08;100034.91;5219762;28;20039;-78
2021/05/09 02:41:05;;;;;;;4.78;2.28;;;;;;;8.48;97.89;100043.88;5218980;28;20033;-78
2021/05/09 02:43:35;;;;;;;3.45;2.25;;;;;;;8.43;98.71;100041.47;5219589;28;20673;-77
2021/05/09 02:46:06;;;;;;;4.20;2.55;;;;;;;8.45;98.41;100038.81;5237755;28;20161;-77
2021/05/09 02:48:36;;;;;;;3.60;2.50;;;;;;;8.42;97.88;100036.31;5235449;28;20017;-77
2021/05/09 02:51:06;;;;;;;4.05;2.40;;;;;;;8.52;96.97;100046.34;5213187;28;20524;-78
2021/05/09 02:53:37;;;;;;;4.80;2.58;;;;;;;8.55;97.23;100051.44;5235866;28;20039;-77
2021/05/09 02:56:07;;;;;;;7.00;2.47;;;;;;;8.46;98.13;100043.09;5232721;28;20027;-77
2021/05/09 02:58:37;;;;;;;3.97;2.65;;;;;;;8.43;97.65;100040.59;5230253;28;20556;-77
2021/05/09 03:01:07;;;;;;;5.07;2.45;;;;;;;8.60;96.80;100028.69;5223985;28;20029;-77
2021/05/09 03:03:38;;;;;;;4.25;2.67;;;;;;;8.44;96.26;100034.50;5215023;28;20028;-77
2021/05/09 03:06:08;;;;;;;5.60;2.40;;;;;;;8.30;97.45;100042.81;5234237;28;20021;-77
2021/05/09 03:08:39;;;;;;;4.60;2.58;;;;;;;8.30;97.68;100035.00;5234480;28;20024;-77
2021/05/09 03:11:10;;;;;;;5.30;2.63;;;;;;;8.17;98.21;100032.81;5232649;28;20103;-77
2021/05/09 03:13:40;;;;;;;4.50;2.55;;;;;;;8.24;98.53;100027.38;5233519;28;20020;-78
2021/05/09 03:16:10;;;;;;;5.57;2.60;;;;;;;8.30;96.87;100031.53;5233047;28;20024;-77
2021/05/09 03:18:41;;;;;;;7.70;2.83;;;;;;;8.40;96.71;100038.94;5231901;28;20055;-77
2021/05/09 03:21:11;;;;;;;5.85;2.92;;;;;;;8.46;96.72;100036.16;5221701;28;20632;-78
2021/05/09 03:23:41;;;;;;;7.95;2.97;;;;;;;8.35;96.35;100034.84;5228745;28;20029;-78
2021/05/09 03:26:12;;;;;;;4.65;2.70;;;;;;;8.44;95.61;100034.50;5231685;28;20025;-77
2021/05/09 03:28:42;;;;;;;4.65;2.67;;;;;;;8.22;97.55;100031.78;5233865;28;20036;-77
2021/05/09 03:31:13;;;;;;;4.43;2.70;;;;;;;8.35;95.77;100030.47;5227814;28;20035;-77
2021/05/09 03:33:43;;;;;;;5.18;2.40;;;;;;;8.37;96.72;100038.22;5235092;28;20020;-77
2021/05/09 03:36:13;;;;;;;3.97;2.40;;;;;;;8.38;96.13;100026.91;5213055;28;20526;-77
2021/05/09 03:38:43;;;;;;;5.25;2.72;;;;;;;8.37;96.35;100020.00;5218031;28;20031;-77
2021/05/09 03:41:14;;;;;;;4.40;2.65;;;;;;;8.10;98.17;100024.41;5235054;28;20059;-78
2021/05/09 03:43:44;;;;;;;4.50;2.65;;;;;;;8.07;99.17;100023.63;5238095;28;20027;-77
2021/05/09 03:46:15;;;;;;;5.20;2.33;;;;;;;8.02;99.81;100026.41;5235329;28;20031;-78
2021/05/09 03:48:46;;;;;;;4.15;2.60;;;;;;;7.96;100.00;100025.75;5237420;28;20089;-77
2021/05/09 03:51:16;;;;;;;5.15;2.75;;;;;;;8.07;100.00;100024.47;5226186;28;20516;-77
2021/05/09 03:53:47;;;;;;;4.68;2.65;;;;;;;8.14;99.61;100025.97;5233342;28;20234;-77
2021/05/09 03:56:18;;;;;;;5.63;2.70;;;;;;;8.33;99.05;100027.06;5236148;28;20023;-77
2021/05/09 03:58:48;;;;;;;5.30;2.53;;;;;;;8.30;100.00;100027.19;5216064;28;20028;-77
2021/05/09 04:01:18;;;;;;;4.22;2.70;;;;;;;8.35;100.00;100022.66;5232976;28;20035;-78
2021/05/09 04:03:49;;;;;;;5.15;2.50;;;;;;;8.51;99.72;100023.81;5219893;28;20081;-78
2021/05/09 04:06:20;;;;;;;8.18;3.03;;;;;;;8.54;100.00;100028.91;5221293;28;20592;-77
2021/05/09 04:08:50;;;;;;;5.97;2.50;;;;;;;8.69;99.41;100010.13;5224528;28;20029;-77
2021/05/09 04:11:20;;;;;;;4.00;2.50;;;;;;;8.75;99.37;100024.69;5237958;28;20024;-78
2021/05/09 04:13:50;;;;;;;3.20;2.20;;;;;;;8.77;99.55;100013.31;5221231;28;20513;-78
2021/05/09 04:16:21;;;;;;;4.97;2.50;;;;;;;9.04;98.39;100011.41;5242355;28;20104;-78
2021/05/09 04:18:51;;;;;;;5.88;2.50;;;;;;;9.16;97.59;100019.59;5238818;28;20028;-78
2021/05/09 04:21:21;;;;;;;5.05;2.40;;;;;;;9.18;98.47;100013.41;5229868;28;20054;-78
2021/05/09 04:23:52;;;;;;;4.85;2.42;;;;;;;9.23;98.17;100015.84;5238571;28;20032;-78
2021/05/09 04:26:22;;;;;;;5.32;2.58;;;;;;;9.28;97.95;100013.91;5238188;28;20021;-78
2021/05/09 04:28:52;;;;;;;4.45;2.40;;;;;;;9.28;97.99;100012.16;5231670;28;20029;-78
2021/05/09 04:31:23;;;;;;;5.40;2.35;;;;;;;9.16;100.00;100017.00;5218980;28;20021;-77
2021/05/09 04:33:53;;;;;;;6.25;2.28;;;;;;;9.47;98.76;100012.28;5238126;28;20111;-76
2021/05/09 04:36:23;;;;;;;4.88;1.98;;;;;;;10.04;95.50;100004.69;5223976;28;20027;-77
2021/05/09 04:38:54;;;;;;;4.88;1.90;;;;;;;10.53;91.85;100002.47;5238425;28;20036;-77
2021/05/09 04:41:24;;;;;;;3.13;1.85;;;;;;;10.97;90.45;99995.22;5219739;28;20108;-77
2021/05/09 04:43:54;;;;;;;4.35;2.20;;;;;;;12.15;86.15;99994.63;5233657;28;20708;-77
2021/05/09 04:46:25;;;;;;;2.45;1.38;;;;;;;13.12;80.83;99997.22;5238055;28;20091;-78
2021/05/09 04:48:55;;;;;;;4.88;1.92;;;;;;;12.98;80.84;99986.63;5223628;28;20027;-78
2021/05/09 04:51:25;;;;;;;3.10;1.80;;;;;;;12.26;84.83;100000.16;5212297;28;20028;-78
2021/05/09 04:53:55;;;;;;;2.97;1.80;;;;;;;11.90;87.03;100000.25;5237227;28;20025;-77
2021/05/09 04:56:26;;;;;;;3.65;1.85;;;;;;;12.20;85.88;100005.69;5226183;28;20020;-77
2021/05/09 04:58:56;;;;;;;2.78;1.70;;;;;;;12.34;85.10;100004.09;5215811;28;20696;-77
2021/05/09 05:01:26;;;;;;;4.22;1.95;;;;;;;12.28;84.79;100004.38;5211168;28;20040;-78
2021/05/09 05:03:57;;;;;;;4.25;1.73;;;;;;;12.62;84.05;99998.25;5223129;28;20509;-77
2021/05/09 05:06:27;;;;;;;4.35;1.73;;;;;;;12.88;83.64;99997.69;5238083;28;20119;-78
2021/05/09 05:08:57;;;;;;;3.63;1.73;;;;;;;12.84;83.17;99993.53;5241127;28;20107;-78
2021/05/09 05:11:27;;;;;;;3.72;1.98;;;;;;;12.90;83.39;99991.44;5237153;28;20067;-77
2021/05/09 05:13:58;;;;;;;3.57;1.70;;;;;;;12.64;84.41;99999.81;5237495;28;20360;-77
2021/05/09 05:16:29;;;;;;;3.78;1.90;;;;;;;12.24;87.24;100000.22;5236317;28;20816;-77
2021/05/09 05:18:59;;;;;;;3.45;1.90;;;;;;;12.20;87.90;100000.47;5229668;28;20104;-77
2021/05/09 05:21:29;;;;;;;3.20;1.92;;;;;;;11.87;88.87;100003.03;5231116;28;20067;-78
2021/05/09 05:24:00;;;;;;;3.38;1.70;;;;;;;11.54;90.54;100001.16;5230182;28;20028;-77
2021/05/09 05:26:30;;;;;;;4.53;2.10;;;;;;;11.27;92.72;100005.13;5236162;28;20450;-78
2021/05/09 05:29:00;;;;;;;5.15;1.88;;;;;;;11.45;91.80;100005.06;5232935;28;20033;-77
2021/05/09 05:31:31;;;;;;;2.93;1.83;;;;;;;11.40;92.48;100006.22;5233231;28;20587;-77
2021/05/09 05:34:02;;;;;;;5.30;2.10;;;;;;;11.19;93.90;100005.47;5240637;28;20645;-77
2021/05/09 05:36:33;;;;;;;4.95;2.20;;;;;;;11.45;92.78;100009.47;5238436;28;20096;-77
2021/05/09 05:39:04;;;;;;;3.00;1.80;;;;;;;11.45;92.70;100004.25;5236915;28;20048;-78
2021/05/09 05:41:34;;;;;;;4.25;2.00;;;;;;;11.48;93.92;100007.53;5238190;28;20028;-78
2021/05/09 05:44:05;;;;;;;4.60;2.20;;;;;;;11.57;92.64;100004.53;5238826;28;20717;-78
2021/05/09 05:46:36;;;;;;;4.88;2.10;;;;;;;11.65;92.63;100012.00;5238448;28;20089;-78
2021/05/09 05:49:06;;;;;;;5.63;2.08;;;;;;;12.09;90.61;100002.78;5235559;28;20037;-78
2021/05/09 05:51:36;;;;;;;3.90;2.00;;;;;;;12.47;89.26;100014.75;5227302;28;20568;-78
2021/05/09 05:54:06;;;;;;;5.53;1.77;;;;;;;13.93;83.02;100003.06;5237459;28;20029;-78
2021/05/09 05:56:37;;;;;;;5.20;1.80;;;;;;;15.95;75.51;99993.69;5237490;28;20016;-79
2021/05/09 05:59:07;;;;;;;5.13;1.65;;;;;;;17.06;71.69;99988.53;5233271;28;20562;-80
2021/05/09 06:01:37;;;;;;;3.42;1.58;;;;;;;17.45;71.09;99993.63;5216396;28;20027;-80
2021/05/09 06:04:08;;;;;;;3.20;1.65;;;;;;;17.80;68.95;99976.84;5238296;28;20382;-79
2021/05/09 06:06:38;;;;;;;6.22;1.50;;;;;;;17.81;70.28;99975.91;5233726;28;20032;-80
2021/05/09 06:09:08;;;;;;;3.72;1.50;;;;;;;18.35;67.57;99982.34;5219270;28;20025;-78
2021/05/09 06:11:39;;;;;;;4.50;1.60;;;;;;;18.59;67.02;99982.25;5216953;28;20541;-80
2021/05/09 06:14:09;;;;;;;3.73;1.50;;;;;;;18.20;68.55;99974.72;5231194;28;20028;-80
2021/05/09 06:16:39;;;;;;;5.15;2.03;;;;;;;17.79;68.82;99971.69;5236846;28;20319;-78
2021/05/09 06:19:09;;;;;;;2.60;1.55;;;;;;;17.51;71.25;99974.69;5219114;28;20021;-79
2021/05/09 06:21:40;;;;;;;4.95;1.58;;;;;;;17.89;69.06;99970.91;5232972;28;20027;-78
2021/05/09 06:24:10;;;;;;;2.58;1.50;;;;;;;18.37;70.20;99982.22;5218887;28;20021;-79
2021/05/09 06:26:41;;;;;;;3.55;1.50;;;;;;;18.90;68.54;99977.94;5235762;28;20079;-80
2021/05/09 06:29:11;;;;;;;4.07;1.55;;;;;;;18.90;66.61;99975.28;5210641;28;20036;-80
2021/05/09 06:31:41;;;;;;;3.63;1.63;;;;;;;18.93;67.61;99979.50;5229107;28;20045;-80
2021/05/09 06:34:12;;;;;;;3.50;1.48;;;;;;;19.24;67.95;99965.53;5237815;28;20037;-80
2021/05/09 06:36:42;;;;;;;2.55;1.30;;;;;;;19.28;66.83;99973.09;5224659;28;20016;-79
2021/05/09 06:39:12;;;;;;;2.43;1.30;;;;;;;20.55;65.04;99972.06;5222000;28;20035;-79
2021/05/09 06:41:43;;;;;;;2.33;1.27;;;;;;;20.47;65.45;99974.53;5237321;28;20345;-79
2021/05/09 06:44:13;;;;;;;2.90;1.60;;;;;;;21.41;63.57;99973.25;5233681;28;20163;-78
2021/05/09 06:46:43;;;;;;;5.25;1.77;;;;;;;22.15;61.43;99961.94;5219856;28;20064;-78
2021/05/09 06:49:15;;;;;;;2.60;1.30;;;;;;;21.12;62.92;99967.88;5237822;28;20025;-80
2021/05/09 06:51:45;;;;;;;2.65;1.38;;;;;;;22.19;60.97;99958.03;5226643;28;20307;-79
2021/05/09 06:54:15;;;;;;;5.55;1.50;;;;;;;22.15;58.31;99968.13;5235653;28;20083;-80
2021/05/09 06:56:48;;;;;;;3.15;1.42;;;;;;;22.88;59.38;99955.72;5215476;28;20025;-80
2021/05/09 06:59:18;;;;;;;4.45;1.38;;;;;;;23.87;57.07;99961.91;5215381;28;20032;-80
2021/05/09 07:01:49;;;;;;;3.13;1.40;;;;;;;23.76;58.09;99967.47;5212172;28;20028;-79
2021/05/09 07:04:19;;;;;;;2.85;1.40;;;;;;;23.87;57.91;99967.25;5218948;28;20050;-79
2021/05/09 07:06:49;;;;;;;2.53;1.50;;;;;;;24.08;56.37;99975.78;5231433;28;20059;-79
2021/05/09 07:09:20;;;;;;;2.67;1.15;;;;;;;24.36;55.39;99965.84;5213920;28;20032;-79
2021/05/09 07:11:50;;;;;;;3.55;1.45;;;;;;;24.49;54.06;99972.44;5212508;28;20116;-79
2021/05/09 07:14:20;;;;;;;3.55;1.42;;;;;;;25.55;55.08;99981.69;5223431;28;20059;-80
2021/05/09 07:16:50;;;;;;;3.50;1.50;;;;;;;25.49;54.52;99976.97;5217798;28;20653;-81
2021/05/09 07:19:21;;;;;;;2.70;1.30;;;;;;;26.35;53.84;99979.09;5235157;28;20033;-79
2021/05/09 07:21:56;;;;;;;3.35;1.52;;;;;;;25.23;54.58;99986.91;5227969;28;20290;-79
2021/05/09 07:24:26;;;;;;;2.50;1.27;;;;;;;25.93;53.71;99984.63;5215122;28;20074;-79
2021/05/09 07:26:57;;;;;;;2.65;1.38;;;;;;;25.40;54.55;99983.31;5235288;28;20088;-78
2021/05/09 07:29:27;;;;;;;2.90;1.50;;;;;;;25.77;54.04;99983.72;5227498;28;20021;-79
2021/05/09 07:31:58;;;;;;;2.70;1.43;;;;;;;27.06;52.28;99980.81;5212462;28;20021;-80
2021/05/09 07:34:28;;;;;;;3.95;1.30;;;;;;;26.80;52.58;99970.31;5218422;28;20398;-79
2021/05/09 07:36:59;;;;;;;3.88;1.42;;;;;;;28.45;49.68;99969.72;5234594;28;20025;-79
2021/05/09 07:39:29;;;;;;;2.47;1.20;;;;;;;28.29;51.01;99961.78;5236866;28;20089;-79
2021/05/09 07:41:59;;;;;;;2.95;1.38;;;;;;;27.32;53.24;99971.53;5217433;28;20021;-79
2021/05/09 07:44:30;;;;;;;2.17;1.20;;;;;;;28.65;51.34;99957.41;5218413;28;20092;-79
2021/05/09 07:47:00;;;;;;;3.83;1.40;;;;;;;27.97;50.42;99959.34;5235503;28;20064;-79
2021/05/09 07:49:31;;;;;;;2.50;1.20;;;;;;;29.30;49.63;99952.97;5232791;22;21062;-78
2021/05/09 07:52:01;;;;;;;5.15;1.83;;;;;;;28.39;49.91;99954.34;5245039;28;20286;-78
2021/05/09 07:54:31;;;;;;;3.20;1.30;;;;;;;28.88;49.04;99956.31;5245651;28;20036;-78
2021/05/09 07:57:02;;;;;;;3.43;1.20;;;;;;;28.73;50.22;99961.88;5246033;28;20549;-78
2021/05/09 07:59:34;;;;;;;3.30;1.40;;;;;;;28.66;51.29;99956.41;5245058;28;20037;-78
2021/05/09 08:02:04;;;;;;;2.97;1.20;;;;;;;29.82;48.77;99954.44;5227170;28;20282;-78
2021/05/09 08:04:34;;;;;;;2.15;1.20;;;;;;;30.10;47.35;99951.81;5246105;28;20310;-78
2021/05/09 08:07:05;;;;;;;2.83;1.20;;;;;;;30.13;47.69;99951.44;5245397;28;20024;-79
2021/05/09 08:09:35;;;;;;;4.43;1.10;;;;;;;30.62;48.81;99947.69;5245196;28;20286;-78
2021/05/09 08:12:06;;;;;;;1.83;1.10;;;;;;;29.85;48.38;99953.19;5244951;28;20694;-78
2021/05/09 08:14:36;;;;;;;3.40;1.40;;;;;;;29.54;48.12;99953.50;5245077;28;20331;-78
2021/05/09 08:17:06;;;;;;;3.13;1.40;;;;;;;30.35;47.93;99945.81;5245664;28;20029;-79
2021/05/09 08:19:36;;;;;;;2.63;1.07;;;;;;;30.57;46.76;99944.72;5245170;28;20036;-78
2021/05/09 08:22:07;;;;;;;2.10;1.10;;;;;;;29.28;49.97;99950.47;5245502;28;20390;-79
2021/05/09 08:24:37;;;;;;;2.05;1.23;;;;;;;30.02;50.40;99949.22;5246121;28;20028;-79
2021/05/09 08:27:08;;;;;;;2.80;1.30;;;;;;;29.97;49.44;99954.38;5248939;28;20032;-78
2021/05/09 08:29:38;;;;;;;3.07;1.10;;;;;;;29.75;49.84;99948.13;5248432;28;20031;-80
2021/05/09 08:32:08;;;;;;;3.37;1.30;;;;;;;28.18;53.11;99947.94;5229588;28;20271;-78
2021/05/09 08:34:39;;;;;;;3.92;1.40;;;;;;;29.10;50.70;99943.81;5249224;28;20094;-78
2021/05/09 08:37:09;;;;;;;5.67;1.20;;;;;;;29.26;49.62;99946.28;5249891;28;20021;-80
2021/05/09 08:39:40;;;;;;;2.10;1.10;;;;;;;29.46;49.57;99937.47;5252295;28;20311;-79
2021/05/09 08:42:17;;;;;;;3.95;1.15;;;;;;;30.04;49.24;99936.41;5253582;28;20043;-79
2021/05/09 08:44:49;;;;;;;3.47;1.40;;;;;;;29.76;51.79;99944.41;5258318;28;20481;-80
2021/05/09 08:47:21;;;;;;;3.55;1.52;;;;;;;29.36;51.11;99939.59;5256216;28;20032;-79
2021/05/09 08:49:51;;;;;;;4.95;1.48;;;;;;;30.73;52.42;99940.91;5256374;28;20032;-79
2021/05/09 08:52:22;;;;;;;2.73;1.30;;;;;;;29.81;50.32;99938.44;5257016;28;20035;-80
2021/05/09 08:54:52;;;;;;;2.22;1.13;;;;;;;28.72;53.94;99936.84;5248194;28;20056;-79
2021/05/09 08:57:22;;;;;;;4.50;1.30;;;;;;;29.70;50.22;99938.94;5255627;28;20085;-79
2021/05/09 08:59:53;;;;;;;3.50;1.27;;;;;;;29.05;51.79;99930.91;5257051;28;20017;-80
2021/05/09 09:02:23;;;;;;;2.90;1.30;;;;;;;28.82;52.75;99926.63;5255061;28;20278;-79
2021/05/09 09:04:55;;;;;;;7.07;1.40;;;;;;;26.52;55.15;99927.19;5256071;28;20498;-79
2021/05/09 09:07:43;;;;;;;4.45;1.35;;;;;;;26.88;56.04;99919.34;5255411;28;20048;-80
2021/05/09 09:10:32;;;;;;;2.95;1.30;;;;;;;26.31;58.59;99916.94;5254160;28;20029;-80
2021/05/09 09:13:04;;;;;;;3.50;1.30;;;;;;;26.35;57.11;99914.78;5254267;28;20028;-80
2021/05/09 09:16:04;;;;;;;3.08;1.20;;;;;;;26.29;60.11;99905.56;5254131;28;20017;-80
2021/05/09 09:18:35;;;;;;;2.90;1.20;;;;;;;25.88;57.50;99895.91;5247976;28;20514;-79
2021/05/09 09:21:24;;;;;;;2.35;1.20;;;;;;;25.97;57.92;99896.75;5234885;28;20036;-80
2021/05/09 09:24:06;;;;;;;3.10;1.08;;;;;;;25.68;57.30;99894.50;5248034;28;20035;-79
2021/05/09 09:26:36;;;;;;;2.03;1.10;;;;;;;25.02;59.53;99893.72;5254148;28;20024;-79
2021/05/09 09:29:22;;;;;;;3.83;1.00;;;;;;;25.42;58.14;99888.47;5252733;28;20020;-80
2021/05/09 09:32:01;;;;;;;3.60;1.30;;;;;;;24.93;61.11;99885.78;5249372;28;20271;-80
2021/05/09 09:34:43;;;;;;;4.25;1.30;;;;;;;24.49;58.25;99878.03;5254413;28;20036;-80
2021/05/09 09:37:14;;;;;;;3.47;1.20;;;;;;;24.86;61.59;99879.44;5253497;28;20040;-79
2021/05/09 09:40:01;;;;;;;2.90;1.10;;;;;;;25.63;61.47;99879.97;5254683;28;20088;-80
2021/05/09 09:42:41;;;;;;;2.22;1.10;;;;;;;25.67;60.05;99879.44;5251721;28;20024;-79
2021/05/09 09:45:13;;;;;;;2.60;1.20;;;;;;;25.94;60.77;99871.13;5232914;28;20034;-78
2021/05/09 09:47:56;;;;;;;4.50;1.00;;;;;;;24.57;61.04;99878.97;5248327;28;20028;-77
2021/05/09 09:50:49;;;;;;;5.10;0.98;;;;;;;24.79;60.67;99873.06;5249879;28;20032;-77
2021/05/09 09:53:33;;;;;;;1.73;1.20;;;;;;;24.83;64.77;99871.72;5248149;28;20024;-78
2021/05/09 09:56:10;;;;;;;3.00;1.30;;;;;;;25.10;62.20;99866.13;5243855;28;20059;-77
2021/05/09 09:58:56;;;;;;;3.45;1.20;;;;;;;24.72;60.58;99863.16;5246467;28;20081;-77
2021/05/09 10:01:35;;;;;;;2.60;1.10;;;;;;;24.32;62.72;99866.44;5244164;28;20107;-77
2021/05/09 10:04:09;;;;;;;1.75;1.05;;;;;;;24.70;62.80;99860.66;5247819;28;20024;-77
2021/05/09 10:06:39;;;;;;;3.78;1.20;;;;;;;24.42;63.79;99848.44;5246672;28;20028;-78
2021/05/09 10:09:10;;;;;;;3.08;1.50;;;;;;;24.82;62.82;99856.69;5247674;28;20032;-79
2021/05/09 10:11:40;;;;;;;137.82;72.45;;;;;;;24.78;63.56;99844.66;5229157;28;20651;-77
2021/05/09 10:14:11;;;;;;;3.95;1.60;;;;;;;24.73;62.87;99837.09;5247781;28;20043;-78
2021/05/09 10:16:42;;;;;;;6.00;2.22;;;;;;;23.92;61.68;99852.84;5248518;28;20070;-77
2021/05/09 10:19:16;;;;;;;3.97;1.50;;;;;;;24.18;63.70;99845.66;5247113;28;20154;-77
2021/05/09 10:21:46;;;;;;;3.15;1.23;;;;;;;23.99;62.25;99835.19;5248571;28;20028;-77
2021/05/09 10:24:23;;;;;;;3.03;1.20;;;;;;;24.17;61.00;99840.47;5248755;28;20424;-78
2021/05/09 10:27:12;;;;;;;1.90;1.10;;;;;;;24.32;61.48;99837.06;5226013;28;20282;-77
2021/05/09 10:29:43;;;;;;;2.90;1.15;;;;;;;24.59;66.21;99831.53;5232286;28;20039;-79
2021/05/09 10:32:20;;;;;;;2.60;1.02;;;;;;;24.67;60.44;99825.38;5249251;28;20032;-77
2021/05/09 10:34:57;;;;;;;2.85;1.20;;;;;;;24.64;64.94;99820.34;5249975;28;20078;-78
2021/05/09 10:40:36;;;;;;;2.88;1.00;;;;;;;24.39;62.85;99816.72;5249851;28;20090;-78
2021/05/09 10:43:08;;;;;;;4.05;1.00;;;;;;;24.41;64.17;99819.22;5248904;28;20020;-78
2021/05/09 10:45:44;;;;;;;1.67;1.02;;;;;;;24.35;63.23;99823.38;5250769;28;20077;-79
2021/05/09 10:48:21;;;;;;;3.08;1.20;;;;;;;23.93;62.33;99817.13;5248876;28;20079;-79
2021/05/09 10:51:22;;;;;;;3.35;1.10;;;;;;;24.43;65.50;99807.41;5251978;28;20081;-78
2021/05/09 10:53:54;;;;;;;2.90;0.90;;;;;;;24.57;62.24;99806.78;5252579;28;20040;-78
2021/05/09 10:56:24;;;;;;;2.38;1.00;;;;;;;24.69;63.50;99807.38;5254058;28;20020;-79
2021/05/09 10:58:55;;;;;;;4.00;0.98;;;;;;;24.41;59.39;99804.03;5250301;28;20031;-77
2021/05/09 11:01:34;;;;;;;3.22;0.98;;;;;;;24.31;59.19;99800.66;5251065;28;20024;-78
2021/05/09 11:04:06;;;;;;;2.22;1.30;;;;;;;24.37;63.67;99786.66;5251787;28;20120;-78
2021/05/09 11:06:51;;;;;;;9.38;6.72;;;;;;;24.67;58.90;99787.94;5251803;28;20023;-79
2021/05/09 11:09:22;;;;;;;25.02;16.30;;;;;;;24.74;60.74;99779.97;5248802;28;20146;-77
2021/05/09 11:11:52;;;;;;;12.07;8.03;;;;;;;24.73;61.06;99782.78;5253096;28;20501;-78
2021/05/09 11:14:22;;;;;;;31.47;19.73;;;;;;;24.88;62.86;99783.84;5252711;28;20028;-77
2021/05/09 11:17:02;;;;;;;45.53;29.48;;;;;;;25.01;63.72;99781.53;5253709;28;20020;-79
2021/05/09 11:19:37;;;;;;;34.42;19.80;;;;;;;24.67;60.14;99767.41;5251608;28;20025;-77
2021/05/09 11:22:09;;;;;;;39.72;26.60;;;;;;;24.58;61.98;99773.72;5253275;28;20030;-78
2021/05/09 11:24:41;;;;;;;31.58;23.08;;;;;;;24.71;60.98;99770.63;5250239;28;20033;-77
2021/05/09 11:27:13;;;;;;;51.60;34.25;;;;;;;24.34;63.36;99770.94;5251412;28;20029;-77
2021/05/09 11:29:49;;;;;;;21.60;15.95;;;;;;;24.73;61.37;99766.75;5250270;28;20028;-79
2021/05/09 11:32:21;;;;;;;33.08;21.50;;;;;;;24.71;62.22;99767.94;5232804;28;20024;-78
2021/05/09 11:35:06;;;;;;;20.48;14.68;;;;;;;24.25;60.35;99765.72;5231695;28;20040;-79
2021/05/09 11:37:40;;;;;;;40.60;27.95;;;;;;;24.16;63.80;99767.53;5259394;28;20081;-78
2021/05/09 11:40:12;;;;;;;29.63;20.77;;;;;;;24.01;61.21;99768.28;5257533;28;20516;-77
2021/05/09 11:42:45;;;;;;;18.17;12.93;;;;;;;24.10;61.39;99757.50;5248683;28;20024;-77
2021/05/09 11:45:15;;;;;;;18.73;11.63;;;;;;;24.13;60.79;99749.16;5249193;28;20024;-78
2021/05/09 11:47:46;;;;;;;23.37;15.37;;;;;;;23.99;63.14;99744.41;5247355;28;20397;-79
2021/05/09 11:50:18;;;;;;;22.20;13.93;;;;;;;24.30;63.80;99748.22;5253328;28;20275;-79
2021/05/09 11:52:50;;;;;;;9.75;7.15;;;;;;;24.20;59.53;99758.19;5254952;28;20043;-79
2021/05/09 11:55:22;;;;;;;11.18;7.57;;;;;;;24.46;61.83;99744.75;5253928;28;20103;-79